<?xml version="1.0" encoding="UTF-8" standalone="no" ?>
<gpx xmlns="http://www.topografix.com/GPX/1/1" xmlns:xsi="http://www.w3.org/2001/XMLSchema-instance" xsi:schemaLocation="http://www.topografix.com/GPX/1/1 http://www.topografix.com/GPX/1/1/gpx.xsd" version="1.1" creator="VisuGPX - https://www.visugpx.com">
  <metadata>
    <name>Boucle de Reignac Sud</name>
    <desc><![CDATA[Chemins balisés CCE Estuaire/Département
Balisage vert]]></desc>
  </metadata>
  <trk>
    <name><![CDATA[Variante hors circulation (+0,5km)]]></name>
    <extensions>
      <line xmlns="http://www.topografix.com/GPX/gpx_style/0/2">
        <color>FF0000</color>
        <width>4</width>
      </line>
    </extensions>
    <trkseg>
      <trkpt lat="45.20823" lon="-0.49855">
        <ele>41.4</ele>
      </trkpt>
      <trkpt lat="45.20829" lon="-0.49871">
        <ele>39.3</ele>
        <time>2018-08-21T09:07:52Z</time>
      </trkpt>
      <trkpt lat="45.20829" lon="-0.49871">
        <ele>39.3</ele>
        <time>2018-08-21T09:07:52Z</time>
      </trkpt>
      <trkpt lat="45.20836" lon="-0.49871">
        <ele>39.3</ele>
        <time>2018-08-21T09:07:54Z</time>
      </trkpt>
      <trkpt lat="45.20838" lon="-0.49877">
        <ele>39.4</ele>
        <time>2018-08-21T09:07:56Z</time>
      </trkpt>
      <trkpt lat="45.20839" lon="-0.49886">
        <ele>39.4</ele>
        <time>2018-08-21T09:07:58Z</time>
      </trkpt>
      <trkpt lat="45.20839" lon="-0.49895">
        <ele>39.3</ele>
        <time>2018-08-21T09:08:00Z</time>
      </trkpt>
      <trkpt lat="45.20838" lon="-0.49906">
        <ele>39.2</ele>
        <time>2018-08-21T09:08:02Z</time>
      </trkpt>
      <trkpt lat="45.20837" lon="-0.49917">
        <ele>39.2</ele>
        <time>2018-08-21T09:08:04Z</time>
      </trkpt>
      <trkpt lat="45.20837" lon="-0.49928">
        <ele>39.1</ele>
        <time>2018-08-21T09:08:06Z</time>
      </trkpt>
      <trkpt lat="45.20837" lon="-0.4994">
        <ele>39.2</ele>
        <time>2018-08-21T09:08:08Z</time>
      </trkpt>
      <trkpt lat="45.20836" lon="-0.49951">
        <ele>39.4</ele>
        <time>2018-08-21T09:08:10Z</time>
      </trkpt>
      <trkpt lat="45.20831" lon="-0.49962">
        <ele>39.7</ele>
        <time>2018-08-21T09:08:12Z</time>
      </trkpt>
      <trkpt lat="45.20826" lon="-0.49965">
        <ele>40</ele>
        <time>2018-08-21T09:08:13Z</time>
      </trkpt>
      <trkpt lat="45.2082" lon="-0.49973">
        <ele>40.2</ele>
        <time>2018-08-21T09:08:15Z</time>
      </trkpt>
      <trkpt lat="45.20818" lon="-0.49985">
        <ele>40.3</ele>
        <time>2018-08-21T09:08:17Z</time>
      </trkpt>
      <trkpt lat="45.20818" lon="-0.49995">
        <ele>40.3</ele>
        <time>2018-08-21T09:08:19Z</time>
      </trkpt>
      <trkpt lat="45.20819" lon="-0.50007">
        <ele>40.2</ele>
        <time>2018-08-21T09:08:21Z</time>
      </trkpt>
      <trkpt lat="45.2082" lon="-0.50013">
        <ele>40.3</ele>
        <time>2018-08-21T09:08:22Z</time>
      </trkpt>
      <trkpt lat="45.2082" lon="-0.5002">
        <ele>40.3</ele>
        <time>2018-08-21T09:08:23Z</time>
      </trkpt>
      <trkpt lat="45.20821" lon="-0.50026">
        <ele>40.5</ele>
        <time>2018-08-21T09:08:24Z</time>
      </trkpt>
      <trkpt lat="45.20822" lon="-0.50039">
        <ele>40.7</ele>
        <time>2018-08-21T09:08:26Z</time>
      </trkpt>
      <trkpt lat="45.20823" lon="-0.50046">
        <ele>40.8</ele>
        <time>2018-08-21T09:08:27Z</time>
      </trkpt>
      <trkpt lat="45.20827" lon="-0.50056">
        <ele>40.9</ele>
        <time>2018-08-21T09:08:29Z</time>
      </trkpt>
      <trkpt lat="45.20833" lon="-0.50063">
        <ele>40.9</ele>
        <time>2018-08-21T09:08:31Z</time>
      </trkpt>
      <trkpt lat="45.20841" lon="-0.50064">
        <ele>40.8</ele>
        <time>2018-08-21T09:08:33Z</time>
      </trkpt>
      <trkpt lat="45.20848" lon="-0.50063">
        <ele>40.7</ele>
        <time>2018-08-21T09:08:35Z</time>
      </trkpt>
      <trkpt lat="45.20855" lon="-0.50065">
        <ele>40.7</ele>
        <time>2018-08-21T09:08:37Z</time>
      </trkpt>
      <trkpt lat="45.20862" lon="-0.50067">
        <ele>40.7</ele>
        <time>2018-08-21T09:08:39Z</time>
      </trkpt>
      <trkpt lat="45.20871" lon="-0.50068">
        <ele>40.6</ele>
        <time>2018-08-21T09:08:41Z</time>
      </trkpt>
      <trkpt lat="45.20879" lon="-0.50071">
        <ele>40.6</ele>
        <time>2018-08-21T09:08:43Z</time>
      </trkpt>
      <trkpt lat="45.20884" lon="-0.50071">
        <ele>40.7</ele>
        <time>2018-08-21T09:08:44Z</time>
      </trkpt>
      <trkpt lat="45.20892" lon="-0.50072">
        <ele>40.7</ele>
        <time>2018-08-21T09:08:46Z</time>
      </trkpt>
      <trkpt lat="45.209" lon="-0.50075">
        <ele>40.7</ele>
        <time>2018-08-21T09:08:48Z</time>
      </trkpt>
      <trkpt lat="45.20907" lon="-0.50077">
        <ele>40.7</ele>
        <time>2018-08-21T09:08:50Z</time>
      </trkpt>
      <trkpt lat="45.20915" lon="-0.50078">
        <ele>40.6</ele>
        <time>2018-08-21T09:08:52Z</time>
      </trkpt>
      <trkpt lat="45.20923" lon="-0.50081">
        <ele>40.4</ele>
        <time>2018-08-21T09:08:54Z</time>
      </trkpt>
      <trkpt lat="45.2093" lon="-0.50083">
        <ele>40.3</ele>
        <time>2018-08-21T09:08:56Z</time>
      </trkpt>
      <trkpt lat="45.20938" lon="-0.50083">
        <ele>40.3</ele>
        <time>2018-08-21T09:08:58Z</time>
      </trkpt>
      <trkpt lat="45.20946" lon="-0.50083">
        <ele>40.3</ele>
        <time>2018-08-21T09:09:00Z</time>
      </trkpt>
      <trkpt lat="45.20954" lon="-0.50081">
        <ele>40.4</ele>
        <time>2018-08-21T09:09:02Z</time>
      </trkpt>
      <trkpt lat="45.20961" lon="-0.50079">
        <ele>40.7</ele>
        <time>2018-08-21T09:09:04Z</time>
      </trkpt>
      <trkpt lat="45.20968" lon="-0.5008">
        <ele>41</ele>
        <time>2018-08-21T09:09:06Z</time>
      </trkpt>
      <trkpt lat="45.20973" lon="-0.50084">
        <ele>41.2</ele>
        <time>2018-08-21T09:09:08Z</time>
      </trkpt>
      <trkpt lat="45.20975" lon="-0.50091">
        <ele>41.4</ele>
        <time>2018-08-21T09:09:10Z</time>
      </trkpt>
      <trkpt lat="45.20974" lon="-0.501">
        <ele>41.5</ele>
        <time>2018-08-21T09:09:12Z</time>
      </trkpt>
      <trkpt lat="45.20974" lon="-0.50111">
        <ele>41.6</ele>
        <time>2018-08-21T09:09:14Z</time>
      </trkpt>
      <trkpt lat="45.20974" lon="-0.50121">
        <ele>41.6</ele>
        <time>2018-08-21T09:09:16Z</time>
      </trkpt>
      <trkpt lat="45.20974" lon="-0.50132">
        <ele>41.7</ele>
        <time>2018-08-21T09:09:18Z</time>
      </trkpt>
      <trkpt lat="45.20974" lon="-0.50143">
        <ele>41.7</ele>
        <time>2018-08-21T09:09:20Z</time>
      </trkpt>
      <trkpt lat="45.20974" lon="-0.50155">
        <ele>41.6</ele>
        <time>2018-08-21T09:09:22Z</time>
      </trkpt>
      <trkpt lat="45.20973" lon="-0.50167">
        <ele>41.6</ele>
        <time>2018-08-21T09:09:24Z</time>
      </trkpt>
      <trkpt lat="45.20973" lon="-0.50178">
        <ele>41.7</ele>
        <time>2018-08-21T09:09:26Z</time>
      </trkpt>
      <trkpt lat="45.20973" lon="-0.50188">
        <ele>41.7</ele>
        <time>2018-08-21T09:09:28Z</time>
      </trkpt>
      <trkpt lat="45.20972" lon="-0.502">
        <ele>41.7</ele>
        <time>2018-08-21T09:09:30Z</time>
      </trkpt>
      <trkpt lat="45.20972" lon="-0.50211">
        <ele>41.6</ele>
        <time>2018-08-21T09:09:32Z</time>
      </trkpt>
      <trkpt lat="45.20972" lon="-0.50221">
        <ele>41.4</ele>
        <time>2018-08-21T09:09:34Z</time>
      </trkpt>
      <trkpt lat="45.20972" lon="-0.50232">
        <ele>41.1</ele>
        <time>2018-08-21T09:09:36Z</time>
      </trkpt>
      <trkpt lat="45.20971" lon="-0.50243">
        <ele>40.8</ele>
        <time>2018-08-21T09:09:38Z</time>
      </trkpt>
      <trkpt lat="45.20971" lon="-0.50253">
        <ele>40.6</ele>
        <time>2018-08-21T09:09:40Z</time>
      </trkpt>
      <trkpt lat="45.2097" lon="-0.50265">
        <ele>40.4</ele>
        <time>2018-08-21T09:09:42Z</time>
      </trkpt>
      <trkpt lat="45.20964" lon="-0.50272">
        <ele>40.3</ele>
        <time>2018-08-21T09:09:44Z</time>
      </trkpt>
      <trkpt lat="45.20957" lon="-0.50277">
        <ele>40.2</ele>
        <time>2018-08-21T09:09:46Z</time>
      </trkpt>
      <trkpt lat="45.2095" lon="-0.50283">
        <ele>40.4</ele>
        <time>2018-08-21T09:09:48Z</time>
      </trkpt>
      <trkpt lat="45.20943" lon="-0.50288">
        <ele>40.4</ele>
        <time>2018-08-21T09:09:50Z</time>
      </trkpt>
      <trkpt lat="45.20939" lon="-0.50297">
        <ele>40.6</ele>
        <time>2018-08-21T09:09:52Z</time>
      </trkpt>
      <trkpt lat="45.20943" lon="-0.50304">
        <ele>40.8</ele>
        <time>2018-08-21T09:09:54Z</time>
      </trkpt>
      <trkpt lat="45.2095" lon="-0.50302">
        <ele>40.9</ele>
        <time>2018-08-21T09:09:56Z</time>
      </trkpt>
      <trkpt lat="45.20956" lon="-0.50295">
        <ele>40.9</ele>
        <time>2018-08-21T09:09:58Z</time>
      </trkpt>
      <trkpt lat="45.20997" lon="-0.50258">
        <ele>40.9</ele>
      </trkpt>
      <trkpt lat="45.21082" lon="-0.50201">
        <ele>41.6</ele>
      </trkpt>
      <trkpt lat="45.21149" lon="-0.50135">
        <ele>43.7</ele>
      </trkpt>
      <trkpt lat="45.21171" lon="-0.50107">
        <ele>44.1</ele>
      </trkpt>
      <trkpt lat="45.21185" lon="-0.50075">
        <ele>44.4</ele>
      </trkpt>
      <trkpt lat="45.21199" lon="-0.50064">
        <ele>44.8</ele>
      </trkpt>
      <trkpt lat="45.21206" lon="-0.50007">
        <ele>44.9</ele>
      </trkpt>
      <trkpt lat="45.21227" lon="-0.49945">
        <ele>45</ele>
      </trkpt>
      <trkpt lat="45.21247" lon="-0.49863">
        <ele>44.9</ele>
      </trkpt>
      <trkpt lat="45.2125" lon="-0.49862">
        <ele>45</ele>
      </trkpt>
    </trkseg>
  </trk>
</gpx>